createdAt,value
2023-05-24T00:00:38.310Z,100824.34
2023-05-24T00:03:07.681Z,100826.28
2023-05-24T00:05:38.648Z,100833.97
2023-05-24T00:08:07.065Z,100836.13
2023-05-24T00:10:35.407Z,100842.16
2023-05-24T00:13:03.754Z,100834.94
2023-05-24T00:15:32.056Z,100842.56
2023-05-24T00:18:00.470Z,100838.25
2023-05-24T00:20:28.841Z,100840.50
2023-05-24T00:22:57.213Z,100829.59
2023-05-24T00:25:25.628Z,100836.94
2023-05-24T00:27:53.935Z,100830.16
2023-05-24T00:30:22.274Z,100830.69
2023-05-24T00:32:50.563Z,100827.25
2023-05-24T00:35:18.894Z,100822.72
2023-05-24T00:37:47.353Z,100824.66
2023-05-24T00:40:15.747Z,100827.00
2023-05-24T00:42:44.052Z,100828.31
2023-05-24T00:45:12.563Z,100831.94
2023-05-24T00:47:41.227Z,100832.53
2023-05-24T00:50:13.867Z,100834.56
2023-05-24T00:52:46.329Z,100836.00
2023-05-24T00:55:15.030Z,100836.53
2023-05-24T00:57:43.737Z,100837.78
2023-05-24T01:00:12.647Z,100830.13
2023-05-24T01:02:41.189Z,100829.38
2023-05-24T01:05:10.075Z,100821.69
2023-05-24T01:08:10.793Z,100824.50
2023-05-24T01:10:47.657Z,100826.94
2023-05-24T01:13:26.058Z,100822.03
2023-05-24T01:16:06.710Z,100831.66
2023-05-24T01:18:40.196Z,100823.31
2023-05-24T01:21:15.283Z,100824.78
2023-05-24T01:23:51.927Z,100827.75
2023-05-24T01:26:27.677Z,100828.09
2023-05-24T01:28:56.456Z,100828.50
2023-05-24T01:31:25.750Z,100835.19
2023-05-24T01:33:54.338Z,100834.84
2023-05-24T01:36:22.765Z,100838.84
2023-05-24T01:38:53.013Z,100842.28
2023-05-24T01:41:24.225Z,100838.25
2023-05-24T01:44:14.932Z,100824.06
2023-05-24T01:46:43.300Z,100834.03
2023-05-24T01:49:43.489Z,100840.25
2023-05-24T01:52:20.762Z,100843.03
2023-05-24T01:54:53.796Z,100840.53
2023-05-24T01:57:23.600Z,100857.00
2023-05-24T01:59:53.623Z,100851.22
2023-05-24T02:02:22.315Z,100859.63
2023-05-24T02:04:51.141Z,100855.31
2023-05-24T02:07:20.176Z,100859.28
2023-05-24T02:09:48.548Z,100856.97
2023-05-24T02:12:16.867Z,100855.31
2023-05-24T02:14:45.130Z,100858.97
2023-05-24T02:17:13.547Z,100860.53
2023-05-24T02:19:41.989Z,100865.66
2023-05-24T02:22:10.396Z,100868.00
2023-05-24T02:24:38.728Z,100872.91
2023-05-24T02:27:07.594Z,100868.28
2023-05-24T02:29:36.024Z,100869.66
2023-05-24T02:32:04.275Z,100871.81
2023-05-24T02:34:32.902Z,100879.22
2023-05-24T02:37:01.164Z,100883.03
2023-05-24T02:39:29.544Z,100868.84
2023-05-24T02:41:57.861Z,100882.53
2023-05-24T02:44:26.161Z,100891.84
2023-05-24T02:46:54.494Z,100885.97
2023-05-24T02:49:22.726Z,100891.72
2023-05-24T02:51:51.331Z,100895.53
2023-05-24T02:54:19.726Z,100892.16
2023-05-24T02:56:48.768Z,100895.13
2023-05-24T02:59:17.133Z,100887.19
2023-05-24T03:01:45.580Z,100888.47
2023-05-24T03:04:13.838Z,100895.06
2023-05-24T03:06:42.076Z,100895.25
2023-05-24T03:09:10.293Z,100890.91
2023-05-24T03:11:38.547Z,100892.88
2023-05-24T03:14:07.659Z,100898.41
2023-05-24T03:16:35.988Z,100896.66
2023-05-24T03:19:06.494Z,100896.03
2023-05-24T03:21:35.966Z,100895.34
2023-05-24T03:24:04.294Z,100894.69
2023-05-24T03:26:32.532Z,100906.31
2023-05-24T03:29:00.750Z,100899.25
2023-05-24T03:31:28.995Z,100907.38
2023-05-24T03:33:57.429Z,100912.00
2023-05-24T03:36:27.162Z,100912.31
2023-05-24T03:38:55.975Z,100909.00
2023-05-24T03:41:24.246Z,100902.94
2023-05-24T03:43:53.816Z,100911.94
2023-05-24T03:46:22.179Z,100909.66
2023-05-24T03:48:50.863Z,100907.13
2023-05-24T03:51:19.162Z,100915.38
2023-05-24T03:53:47.379Z,100921.78
2023-05-24T03:56:15.607Z,100931.63
2023-05-24T03:58:43.872Z,100927.38
2023-05-24T04:01:25.347Z,100931.06
2023-05-24T04:03:58.205Z,100934.72
2023-05-24T04:06:30.018Z,100937.63
2023-05-24T04:09:00.106Z,100949.34
2023-05-24T04:11:29.334Z,100943.34
2023-05-24T04:13:58.481Z,100939.09
2023-05-24T04:16:27.346Z,100950.03
2023-05-24T04:18:58.935Z,100952.88
2023-05-24T04:21:27.254Z,100957.56
2023-05-24T04:23:56.785Z,100965.78
2023-05-24T04:26:25.019Z,100971.41
2023-05-24T04:28:53.391Z,100959.16
2023-05-24T04:31:22.725Z,100973.63
2023-05-24T04:33:51.446Z,100979.03
2023-05-24T04:36:20.293Z,100985.41
2023-05-24T04:38:48.521Z,100981.91
2023-05-24T04:41:16.956Z,100984.66
2023-05-24T04:43:45.809Z,100986.50
2023-05-24T04:46:14.558Z,100987.53
2023-05-24T04:48:43.049Z,100989.53
2023-05-24T04:51:11.365Z,100989.59
2023-05-24T04:53:39.741Z,100993.19
2023-05-24T04:56:08.071Z,100991.69
2023-05-24T04:58:38.121Z,100986.44
2023-05-24T05:01:07.627Z,100989.19
2023-05-24T05:03:36.037Z,100989.25
2023-05-24T05:06:04.859Z,100995.53
2023-05-24T05:08:33.448Z,100995.78
2023-05-24T05:11:02.055Z,101008.41
2023-05-24T05:13:30.296Z,101008.59
2023-05-24T05:15:58.492Z,101018.38
2023-05-24T05:18:26.741Z,101015.78
2023-05-24T05:20:55.154Z,101021.38
2023-05-24T05:23:23.389Z,101020.66
2023-05-24T05:25:52.077Z,101018.09
2023-05-24T05:28:20.344Z,101023.50
2023-05-24T05:30:48.778Z,101030.72
2023-05-24T05:33:17.309Z,101029.09
2023-05-24T05:35:45.609Z,101035.38
2023-05-24T05:38:14.181Z,101026.56
2023-05-24T05:40:42.671Z,101040.03
2023-05-24T05:43:11.253Z,101033.88
2023-05-24T05:45:39.688Z,101035.75
2023-05-24T05:48:08.136Z,101032.41
2023-05-24T05:50:36.549Z,101039.47
2023-05-24T05:53:04.785Z,101036.91
2023-05-24T05:55:33.021Z,101041.31
2023-05-24T05:58:01.393Z,101047.66
2023-05-24T06:00:29.658Z,101041.56
2023-05-24T06:02:58.014Z,101038.03
2023-05-24T06:05:26.537Z,101035.38
2023-05-24T06:07:54.904Z,101036.16
2023-05-24T06:10:23.109Z,101029.97
2023-05-24T06:12:51.884Z,101032.63
2023-05-24T06:15:23.453Z,101022.97
2023-05-24T06:17:53.508Z,101023.16
2023-05-24T06:20:21.866Z,101015.28
2023-05-24T06:22:51.665Z,101027.84
2023-05-24T06:25:21.651Z,101030.78
2023-05-24T06:27:50.075Z,101035.31
2023-05-24T06:30:19.026Z,101035.25
2023-05-24T06:32:47.410Z,101031.59
2023-05-24T06:35:15.626Z,101028.94
2023-05-24T06:37:44.489Z,101036.00
2023-05-24T06:40:13.833Z,101028.78
2023-05-24T06:42:42.179Z,101027.84
2023-05-24T06:45:10.837Z,101038.69
2023-05-24T06:47:39.198Z,101037.84
2023-05-24T06:50:08.234Z,101044.19
2023-05-24T06:52:36.756Z,101042.47
2023-05-24T06:55:05.574Z,101039.13
2023-05-24T06:57:33.794Z,101045.47
2023-05-24T07:00:02.463Z,101037.47
2023-05-24T07:02:30.749Z,101047.44
2023-05-24T07:04:59.123Z,101042.13
2023-05-24T07:07:27.668Z,101033.22
2023-05-24T07:09:56.273Z,101044.81
2023-05-24T07:12:24.621Z,101034.25
2023-05-24T07:14:53.223Z,101026.31
2023-05-24T07:17:22.022Z,101025.50
2023-05-24T07:19:50.382Z,101015.66
2023-05-24T07:22:18.789Z,101016.69
2023-05-24T07:24:47.131Z,101018.63
2023-05-24T07:27:15.382Z,101018.75
2023-05-24T07:29:44.728Z,101024.31
2023-05-24T07:32:14.610Z,101025.25
2023-05-24T07:34:42.901Z,101027.16
2023-05-24T07:37:11.316Z,101028.09
2023-05-24T07:39:39.951Z,101036.09
2023-05-24T07:42:08.312Z,101041.41
2023-05-24T07:44:36.950Z,101034.22
2023-05-24T07:47:05.367Z,101041.25
2023-05-24T07:49:33.618Z,101042.03
2023-05-24T07:52:01.951Z,101037.56
2023-05-24T07:54:30.226Z,101037.66
2023-05-24T07:56:58.663Z,101034.97
2023-05-24T07:59:27.160Z,101041.06
2023-05-24T08:01:55.428Z,101044.63
2023-05-24T08:04:24.734Z,101042.91
2023-05-24T08:06:53.126Z,101038.34
2023-05-24T08:09:21.450Z,101045.47
2023-05-24T08:11:49.672Z,101043.72
2023-05-24T08:14:17.926Z,101034.97
2023-05-24T08:16:46.301Z,101035.94
2023-05-24T08:19:14.883Z,101031.56
2023-05-24T08:21:43.334Z,101037.91
2023-05-24T08:24:11.677Z,101035.38
2023-05-24T08:26:39.958Z,101031.09
2023-05-24T08:29:08.694Z,101027.63
2023-05-24T08:31:37.065Z,101027.75
2023-05-24T08:34:06.154Z,101032.25
2023-05-24T08:36:34.391Z,101035.00
2023-05-24T08:39:02.624Z,101041.41
2023-05-24T08:41:33.478Z,101040.47
2023-05-24T08:44:03.305Z,101035.16
2023-05-24T08:46:32.575Z,101040.53
2023-05-24T08:49:02.419Z,101034.44
2023-05-24T08:51:34.605Z,101039.81
2023-05-24T08:54:03.297Z,101044.34
2023-05-24T08:56:32.366Z,101051.44
2023-05-24T08:59:01.026Z,101055.78
2023-05-24T09:01:32.285Z,101051.28
2023-05-24T09:04:04.010Z,101050.44
2023-05-24T09:06:33.416Z,101052.25
2023-05-24T09:09:04.623Z,101050.59
2023-05-24T09:11:34.285Z,101061.16
2023-05-24T09:14:03.916Z,101056.78
2023-05-24T09:16:32.757Z,101052.47
2023-05-24T09:19:01.004Z,101050.69
2023-05-24T09:21:30.547Z,101055.06
2023-05-24T09:23:59.590Z,101061.31
2023-05-24T09:26:32.669Z,101048.09
2023-05-24T09:29:00.979Z,101053.50
2023-05-24T09:31:40.763Z,101052.75
2023-05-24T09:34:16.058Z,101046.69
2023-05-24T09:36:47.036Z,101050.38
2023-05-24T09:39:15.216Z,101056.56
2023-05-24T09:41:45.899Z,101061.03
2023-05-24T09:44:17.617Z,101047.66
2023-05-24T09:46:46.655Z,101059.16
2023-05-24T09:49:15.286Z,101052.09
2023-05-24T09:51:43.556Z,101051.41
2023-05-24T09:54:13.668Z,101058.53
2023-05-24T09:56:42.032Z,101065.66
2023-05-24T09:59:10.739Z,101065.78
2023-05-24T10:01:39.173Z,101069.47
2023-05-24T10:04:10.253Z,101077.53
2023-05-24T10:06:40.059Z,101075.75
2023-05-24T10:09:10.299Z,101074.03
2023-05-24T10:11:38.625Z,101076.75
2023-05-24T10:14:08.295Z,101079.34
2023-05-24T10:16:39.092Z,101067.91
2023-05-24T10:19:08.134Z,101068.94
2023-05-24T10:21:41.033Z,101076.91
2023-05-24T10:24:12.529Z,101080.44
2023-05-24T10:26:43.342Z,101076.03
2023-05-24T10:29:18.829Z,101078.88
2023-05-24T10:31:47.832Z,101080.66
2023-05-24T10:34:16.573Z,101074.47
2023-05-24T10:36:46.330Z,101074.56
2023-05-24T10:39:14.767Z,101072.84
2023-05-24T10:41:43.737Z,101071.09
2023-05-24T10:44:14.178Z,101062.28
2023-05-24T10:47:09.666Z,101066.81
2023-05-24T10:49:40.535Z,101067.75
2023-05-24T10:52:11.187Z,101071.41
2023-05-24T10:54:44.771Z,101073.22
2023-05-24T10:57:25.999Z,101071.44
2023-05-24T10:59:58.043Z,101065.25
2023-05-24T11:02:36.442Z,101066.19
2023-05-24T11:05:07.227Z,101065.25
2023-05-24T11:07:46.167Z,101072.38
2023-05-24T11:10:32.159Z,101067.03
2023-05-24T11:13:04.905Z,101060.00
2023-05-24T11:15:33.154Z,101078.53
2023-05-24T11:18:10.484Z,101076.88
2023-05-24T11:20:39.487Z,101059.22
2023-05-24T11:23:10.104Z,101067.13
2023-05-24T11:25:39.557Z,101074.97
2023-05-24T11:28:12.135Z,101065.09
2023-05-24T11:30:47.779Z,101064.94
2023-05-24T11:33:24.417Z,101060.47
2023-05-24T11:35:53.865Z,101064.78
2023-05-24T11:38:24.891Z,101055.03
2023-05-24T11:40:54.120Z,101055.88
2023-05-24T11:43:25.926Z,101068.16
2023-05-24T11:45:54.466Z,101060.09
2023-05-24T11:48:22.704Z,101055.56
2023-05-24T11:50:51.020Z,101064.47
2023-05-24T11:53:22.237Z,101067.91
2023-05-24T11:55:50.729Z,101059.94
2023-05-24T11:58:25.709Z,101066.06
2023-05-24T12:00:54.062Z,101062.44
2023-05-24T12:03:22.674Z,101058.84
2023-05-24T12:05:50.986Z,101067.69
2023-05-24T12:08:19.277Z,101063.22
2023-05-24T12:10:49.934Z,101068.50
2023-05-24T12:13:27.973Z,101064.00
2023-05-24T12:15:57.317Z,101062.28
2023-05-24T12:18:27.345Z,101062.22
2023-05-24T12:20:56.085Z,101066.66
2023-05-24T12:23:29.400Z,101064.06
2023-05-24T12:26:01.790Z,101066.75
2023-05-24T12:28:39.445Z,101063.16
2023-05-24T12:31:08.042Z,101080.81
2023-05-24T12:33:36.693Z,101073.63
2023-05-24T12:36:06.104Z,101080.56
2023-05-24T12:38:34.432Z,101083.16
2023-05-24T12:43:33.737Z,101085.78
2023-05-24T12:46:02.536Z,101080.59
2023-05-24T12:48:30.792Z,101085.13
2023-05-24T12:50:59.126Z,101088.72
2023-05-24T12:53:27.746Z,101086.00
2023-05-24T12:55:56.965Z,101091.31
2023-05-24T12:58:25.471Z,101093.03
2023-05-24T13:00:53.853Z,101093.09
2023-05-24T13:03:22.225Z,101087.94
2023-05-24T13:05:50.669Z,101090.75
2023-05-24T13:08:19.173Z,101090.00
2023-05-24T13:10:47.634Z,101093.50
2023-05-24T13:13:15.971Z,101091.72
2023-05-24T13:15:45.456Z,101100.53
2023-05-24T13:18:14.037Z,101104.84
2023-05-24T13:20:42.569Z,101106.50
2023-05-24T13:23:11.158Z,101109.94
2023-05-24T13:25:39.357Z,101115.16
2023-05-24T13:28:07.921Z,101112.44
2023-05-24T13:30:36.232Z,101115.03
2023-05-24T13:33:04.574Z,101114.94
2023-05-24T13:35:33.053Z,101119.34
2023-05-24T13:38:01.323Z,101117.59
2023-05-24T13:40:29.679Z,101125.66
2023-05-24T13:42:58.543Z,101125.66
2023-05-24T13:45:27.167Z,101133.66
2023-05-24T13:47:59.171Z,101135.47
2023-05-24T13:50:27.748Z,101129.22
2023-05-24T13:52:56.970Z,101131.13
2023-05-24T13:55:25.943Z,101133.78
2023-05-24T13:57:56.248Z,101127.53
2023-05-24T14:00:25.064Z,101133.66
2023-05-24T14:02:53.843Z,101126.53
2023-05-24T14:05:27.362Z,101124.75
2023-05-24T14:07:57.463Z,101136.28
2023-05-24T14:10:26.092Z,101136.16
2023-05-24T14:13:13.195Z,101129.88
2023-05-24T14:15:43.223Z,101130.69
2023-05-24T14:18:12.022Z,101138.56
2023-05-24T14:20:41.653Z,101142.03
2023-05-24T14:23:10.731Z,101142.09
2023-05-24T14:25:39.160Z,101140.38
2023-05-24T14:28:09.272Z,101140.22
2023-05-24T14:30:38.634Z,101142.75
2023-05-24T14:33:12.008Z,101147.91
2023-05-24T14:35:40.754Z,101149.69
2023-05-24T14:38:10.977Z,101150.53
2023-05-24T14:40:41.574Z,101144.44
2023-05-24T14:43:11.325Z,101150.69
2023-05-24T14:45:44.532Z,101152.50
2023-05-24T14:48:13.314Z,101147.03
2023-05-24T14:50:42.289Z,101152.38
2023-05-24T14:53:14.642Z,101152.38
2023-05-24T14:55:44.507Z,101159.38
2023-05-24T14:58:13.481Z,101160.13
2023-05-24T15:00:43.515Z,101153.91
2023-05-24T15:03:13.377Z,101157.38
2023-05-24T15:05:43.441Z,101163.38
2023-05-24T15:08:12.203Z,101156.09
2023-05-24T15:10:41.143Z,101160.34
2023-05-24T15:13:09.616Z,101162.97
2023-05-24T15:15:37.900Z,101159.44
2023-05-24T15:18:06.670Z,101171.66
2023-05-24T15:20:36.020Z,101168.78
2023-05-24T15:23:04.685Z,101173.00
2023-05-24T15:25:32.947Z,101167.44
2023-05-24T15:28:01.356Z,101173.47
2023-05-24T15:30:29.679Z,101163.50
2023-05-24T15:32:59.805Z,101172.94
2023-05-24T15:35:28.518Z,101168.06
2023-05-24T15:37:56.776Z,101174.97
2023-05-24T15:40:25.247Z,101177.53
2023-05-24T15:42:53.861Z,101181.00
2023-05-24T15:45:22.268Z,101175.53
2023-05-24T15:47:50.737Z,101177.97
2023-05-24T15:50:25.878Z,101186.72
2023-05-24T15:53:00.457Z,101176.91
2023-05-24T15:55:28.760Z,101177.69
2023-05-24T15:57:59.255Z,101181.03
2023-05-24T16:00:27.922Z,101185.38
2023-05-24T16:02:57.760Z,101178.25
2023-05-24T16:05:27.739Z,101177.13
2023-05-24T16:07:56.279Z,101179.56
2023-05-24T16:10:24.619Z,101182.91
2023-05-24T16:12:52.866Z,101178.94
2023-05-24T16:15:21.080Z,101175.09
2023-05-24T16:17:49.541Z,101170.53
2023-05-24T16:20:17.865Z,101171.13
2023-05-24T16:22:52.477Z,101167.91
2023-05-24T16:25:20.323Z,101167.59
2023-05-24T16:27:48.619Z,101168.25
2023-05-24T16:30:16.932Z,101168.09
2023-05-24T16:32:46.193Z,101172.19
2023-05-24T16:35:14.645Z,101156.63
2023-05-24T16:37:42.961Z,101165.47
2023-05-24T16:40:11.989Z,101158.25
2023-05-24T16:42:40.221Z,101154.22
2023-05-24T16:45:08.940Z,101149.50
2023-05-24T16:47:37.525Z,101151.16
2023-05-24T16:50:06.428Z,101145.59
2023-05-24T16:52:34.685Z,101152.41
2023-05-24T16:55:02.948Z,101149.38
2023-05-24T16:57:31.204Z,101140.84
2023-05-24T16:59:59.504Z,101145.47
2023-05-24T17:02:28.172Z,101144.97
2023-05-24T17:04:56.447Z,101142.78
2023-05-24T17:07:24.775Z,101144.16
2023-05-24T17:09:53.250Z,101138.38
2023-05-24T17:12:24.793Z,101140.19
2023-05-24T17:14:53.602Z,101148.56
2023-05-24T17:17:21.960Z,101146.97
2023-05-24T17:19:50.270Z,101150.72
2023-05-24T17:22:18.592Z,101152.53
2023-05-24T17:24:47.352Z,101143.75
2023-05-24T17:27:16.446Z,101142.06
2023-05-24T17:29:48.136Z,101136.66
2023-05-24T17:32:16.380Z,101141.84
2023-05-24T17:34:44.592Z,101137.72
2023-05-24T17:37:12.832Z,101132.84
2023-05-24T17:39:41.155Z,101132.63
2023-05-24T17:42:09.644Z,101134.94
2023-05-24T17:44:37.885Z,101131.72
2023-05-24T17:47:06.479Z,101129.88
2023-05-24T17:49:34.719Z,101132.78
2023-05-24T17:52:02.949Z,101133.28
2023-05-24T17:54:31.386Z,101132.81
2023-05-24T17:56:59.609Z,101134.09
2023-05-24T17:59:28.157Z,101127.16
2023-05-24T18:01:56.413Z,101134.47
2023-05-24T18:04:24.661Z,101139.91
2023-05-24T18:06:52.892Z,101137.06
2023-05-24T18:09:22.358Z,101134.72
2023-05-24T18:11:50.690Z,101136.44
2023-05-24T18:14:19.267Z,101135.94
2023-05-24T18:16:47.615Z,101132.31
2023-05-24T18:19:15.874Z,101138.19
2023-05-24T18:21:44.147Z,101130.59
2023-05-24T18:24:12.346Z,101142.81
2023-05-24T18:26:40.570Z,101140.47
2023-05-24T18:29:08.837Z,101128.09
2023-05-24T18:31:37.393Z,101128.69
2023-05-24T18:34:05.761Z,101128.88
2023-05-24T18:36:34.148Z,101139.69
2023-05-24T18:39:02.394Z,101127.47
2023-05-24T18:41:30.769Z,101130.41
2023-05-24T18:43:59.034Z,101130.41
2023-05-24T18:46:28.605Z,101121.25
2023-05-24T18:48:59.444Z,101119.84
2023-05-24T18:51:27.959Z,101117.94
2023-05-24T18:53:56.234Z,101117.63
2023-05-24T18:56:25.118Z,101114.81
2023-05-24T18:58:55.071Z,101120.41
2023-05-24T19:01:23.411Z,101110.81
2023-05-24T19:03:51.886Z,101114.94
2023-05-24T19:06:20.142Z,101106.25
2023-05-24T19:08:48.574Z,101111.97
2023-05-24T19:11:16.995Z,101110.69
2023-05-24T19:13:45.232Z,101102.78
2023-05-24T19:16:18.149Z,101097.22
2023-05-24T19:18:47.287Z,101102.50
2023-05-24T19:21:15.799Z,101099.03
2023-05-24T19:23:44.144Z,101086.81
2023-05-24T19:26:12.721Z,101082.72
2023-05-24T19:28:43.050Z,101090.66
2023-05-24T19:31:11.476Z,101087.94
2023-05-24T19:33:48.735Z,101081.31
2023-05-24T19:36:27.530Z,101073.56
2023-05-24T19:38:55.776Z,101075.22
2023-05-24T19:41:24.071Z,101075.16
2023-05-24T19:43:53.529Z,101061.59
2023-05-24T19:46:24.452Z,101061.16
2023-05-24T19:48:52.782Z,101051.44
2023-05-24T19:51:21.225Z,101045.31
2023-05-24T19:53:49.529Z,101049.06
2023-05-24T19:56:17.831Z,101046.75
2023-05-24T19:58:46.102Z,101050.75
2023-05-24T20:01:14.449Z,101043.00
2023-05-24T20:03:48.978Z,101035.53
2023-05-24T20:06:17.752Z,101033.97
2023-05-24T20:08:47.543Z,101037.97
2023-05-24T20:11:15.866Z,101036.97
2023-05-24T20:13:44.125Z,101033.75
2023-05-24T20:16:12.425Z,101034.19
2023-05-24T20:18:40.731Z,101028.19
2023-05-24T20:21:08.936Z,101026.47
2023-05-24T20:23:37.217Z,101028.19
2023-05-24T20:26:05.739Z,101026.47
2023-05-24T20:28:34.088Z,101028.06
2023-05-24T20:31:02.604Z,101025.56
2023-05-24T20:33:30.920Z,101026.91
2023-05-24T20:35:59.693Z,101027.03
2023-05-24T20:38:28.279Z,101021.44
2023-05-24T20:40:56.556Z,101022.13
2023-05-24T20:43:24.800Z,101016.44
2023-05-24T20:45:53.239Z,101019.63
2023-05-24T20:48:21.934Z,101023.06
2023-05-24T20:50:50.220Z,101023.03
2023-05-24T20:53:19.216Z,101014.81
2023-05-24T20:55:47.501Z,101013.16
2023-05-24T20:58:17.908Z,101004.72
2023-05-24T21:00:46.437Z,101008.50
2023-05-24T21:03:14.858Z,101009.09
2023-05-24T21:05:43.529Z,101016.84
2023-05-24T21:08:11.997Z,101010.75
2023-05-24T21:10:40.307Z,101005.41
2023-05-24T21:13:08.697Z,100998.22
2023-05-24T21:15:36.942Z,101008.28
2023-05-24T21:18:05.514Z,101000.31
2023-05-24T21:20:33.935Z,100992.94
2023-05-24T21:23:02.278Z,100994.84
2023-05-24T21:25:30.543Z,100998.16
2023-05-24T21:27:58.822Z,100991.16
2023-05-24T21:30:27.534Z,100996.19
2023-05-24T21:32:55.831Z,100993.47
2023-05-24T21:35:24.108Z,100989.91
2023-05-24T21:37:53.401Z,100995.94
2023-05-24T21:40:21.743Z,100982.22
2023-05-24T21:42:49.963Z,100988.22
2023-05-24T21:45:18.296Z,100974.84
2023-05-24T21:47:46.609Z,100972.13
2023-05-24T21:50:15.009Z,100970.59
2023-05-24T21:52:43.442Z,100965.03
2023-05-24T21:55:11.731Z,100968.91
2023-05-24T21:57:40.128Z,100960.75
2023-05-24T22:00:09.734Z,100958.34
2023-05-24T22:02:38.419Z,100951.19
2023-05-24T22:05:07.137Z,100944.16
2023-05-24T22:07:35.472Z,100945.47
2023-05-24T22:10:04.281Z,100943.88
2023-05-24T22:12:32.531Z,100943.44
2023-05-24T22:15:02.631Z,100940.13
2023-05-24T22:17:33.473Z,100938.28
2023-05-24T22:20:07.682Z,100933.72
2023-05-24T22:22:37.302Z,100927.72
2023-05-24T22:25:05.855Z,100933.16
2023-05-24T22:27:36.703Z,100933.16
2023-05-24T22:30:05.105Z,100936.31
2023-05-24T22:32:33.405Z,100930.03
2023-05-24T22:35:01.731Z,100925.72
2023-05-24T22:37:29.976Z,100927.56
2023-05-24T22:39:58.289Z,100925.53
2023-05-24T22:42:26.564Z,100927.97
2023-05-24T22:44:54.864Z,100912.75
2023-05-24T22:47:24.755Z,100917.63
2023-05-24T22:49:54.830Z,100915.59
2023-05-24T22:52:25.414Z,100912.41
2023-05-24T22:54:53.849Z,100915.31
2023-05-24T22:57:23.418Z,100913.88
2023-05-24T22:59:52.010Z,100906.09
2023-05-24T23:02:20.421Z,100908.00
2023-05-24T23:04:49.190Z,100907.16
2023-05-24T23:07:17.583Z,100901.81
2023-05-24T23:09:45.935Z,100905.34
2023-05-24T23:12:15.009Z,100896.94
2023-05-24T23:14:47.155Z,100903.88
2023-05-24T23:17:15.756Z,100906.03
2023-05-24T23:19:44.629Z,100899.25
2023-05-24T23:22:14.203Z,100904.47
2023-05-24T23:24:43.208Z,100899.69
2023-05-24T23:27:12.141Z,100896.03
2023-05-24T23:29:40.445Z,100899.34
2023-05-24T23:32:10.116Z,100899.44
2023-05-24T23:34:38.774Z,100889.94
2023-05-24T23:37:08.643Z,100890.50
2023-05-24T23:39:36.951Z,100897.81
2023-05-24T23:42:05.525Z,100897.31
2023-05-24T23:44:33.905Z,100882.09
2023-05-24T23:47:03.054Z,100882.69
2023-05-24T23:49:31.569Z,100882.97
2023-05-24T23:51:59.967Z,100878.06
2023-05-24T23:54:28.631Z,100879.59
2023-05-24T23:56:56.968Z,100876.47
2023-05-24T23:59:25.319Z,100876.41
